sensor_id;sensor_type;location;lat;lon;timestamp;P1;durP1;ratioP1;P2;durP2;ratioP2
56746;SDS011;42623;49.978;9.966;2023-07-24T00:00:05;5.40;;;2.10;;
56746;SDS011;42623;49.978;9.966;2023-07-24T00:00:15;5.37;;;2.17;;
56746;SDS011;42623;49.978;9.966;2023-07-24T00:00:25;4.13;;;2.03;;
56746;SDS011;42623;49.978;9.966;2023-07-24T00:00:35;5.10;;;2.43;;
56746;SDS011;42623;49.978;9.966;2023-07-24T00:00:46;5.27;;;2.13;;
56746;SDS011;42623;49.978;9.966;2023-07-24T00:00:56;6.50;;;2.60;;
56746;SDS011;42623;49.978;9.966;2023-07-24T00:01:06;6.17;;;2.47;;
56746;SDS011;42623;49.978;9.966;2023-07-24T00:01:16;5.90;;;2.50;;
56746;SDS011;42623;49.978;9.966;2023-07-24T00:01:28;5.85;;;2.28;;
56746;SDS011;42623;49.978;9.966;2023-07-24T00:01:38;5.27;;;2.23;;
56746;SDS011;42623;49.978;9.966;2023-07-24T00:01:48;5.23;;;2.17;;
56746;SDS011;42623;49.978;9.966;2023-07-24T00:01:58;4.87;;;2.00;;
56746;SDS011;42623;49.978;9.966;2023-07-24T00:02:08;5.03;;;1.98;;
56746;SDS011;42623;49.978;9.966;2023-07-24T00:02:18;5.10;;;2.03;;
56746;SDS011;42623;49.978;9.966;2023-07-24T00:02:29;5.10;;;1.97;;
56746;SDS011;42623;49.978;9.966;2023-07-24T00:02:39;5.67;;;2.33;;
56746;SDS011;42623;49.978;9.966;2023-07-24T00:02:49;5.53;;;2.23;;
56746;SDS011;42623;49.978;9.966;2023-07-24T00:02:59;5.28;;;2.20;;
56746;SDS011;42623;49.978;9.966;2023-07-24T00:03:10;5.93;;;2.03;;
56746;SDS011;42623;49.978;9.966;2023-07-24T00:03:20;7.63;;;2.57;;
56746;SDS011;42623;49.978;9.966;2023-07-24T00:03:30;7.70;;;2.70;;
56746;SDS011;42623;49.978;9.966;2023-07-24T00:03:40;7.23;;;2.70;;
56746;SDS011;42623;49.978;9.966;2023-07-24T00:03:50;6.23;;;2.37;;
56746;SDS011;42623;49.978;9.966;2023-07-24T00:04:00;6.73;;;2.20;;
56746;SDS011;42623;49.978;9.966;2023-07-24T00:04:11;5.70;;;2.13;;
56746;SDS011;42623;49.978;9.966;2023-07-24T00:04:21;9.90;;;2.17;;
56746;SDS011;42623;49.978;9.966;2023-07-24T00:04:31;9.52;;;2.03;;
56746;SDS011;42623;49.978;9.966;2023-07-24T00:04:41;10.27;;;2.23;;
56746;SDS011;42623;49.978;9.966;2023-07-24T00:04:51;5.40;;;2.20;;
56746;SDS011;42623;49.978;9.966;2023-07-24T00:05:02;6.47;;;2.63;;
56746;SDS011;42623;49.978;9.966;2023-07-24T00:05:12;6.60;;;2.55;;
56746;SDS011;42623;49.978;9.966;2023-07-24T00:05:22;6.10;;;2.50;;
56746;SDS011;42623;49.978;9.966;2023-07-24T00:05:32;6.27;;;2.33;;
56746;SDS011;42623;49.978;9.966;2023-07-24T00:05:42;7.70;;;2.37;;
56746;SDS011;42623;49.978;9.966;2023-07-24T00:05:52;7.63;;;2.10;;
56746;SDS011;42623;49.978;9.966;2023-07-24T00:06:03;7.03;;;2.30;;
56746;SDS011;42623;49.978;9.966;2023-07-24T00:06:13;5.57;;;2.23;;
56746;SDS011;42623;49.978;9.966;2023-07-24T00:06:23;5.43;;;2.40;;
56746;SDS011;42623;49.978;9.966;2023-07-24T00:06:33;4.97;;;2.10;;
56746;SDS011;42623;49.978;9.966;2023-07-24T00:06:43;6.23;;;2.20;;
56746;SDS011;42623;49.978;9.966;2023-07-24T00:06:53;6.57;;;2.17;;
56746;SDS011;42623;49.978;9.966;2023-07-24T00:07:04;8.40;;;2.47;;
56746;SDS011;42623;49.978;9.966;2023-07-24T00:07:14;6.78;;;2.38;;
56746;SDS011;42623;49.978;9.966;2023-07-24T00:07:25;6.73;;;2.13;;
56746;SDS011;42623;49.978;9.966;2023-07-24T00:07:35;5.57;;;1.97;;
56746;SDS011;42623;49.978;9.966;2023-07-24T00:07:45;6.40;;;2.00;;
56746;SDS011;42623;49.978;9.966;2023-07-24T00:07:55;6.70;;;2.28;;
56746;SDS011;42623;49.978;9.966;2023-07-24T00:08:05;7.60;;;2.67;;
56746;SDS011;42623;49.978;9.966;2023-07-24T00:08:16;6.30;;;2.45;;
56746;SDS011;42623;49.978;9.966;2023-07-24T00:08:27;6.27;;;2.40;;
56746;SDS011;42623;49.978;9.966;2023-07-24T00:08:37;5.43;;;2.23;;
56746;SDS011;42623;49.978;9.966;2023-07-24T00:08:47;6.18;;;2.70;;
56746;SDS011;42623;49.978;9.966;2023-07-24T00:08:57;7.30;;;2.63;;
56746;SDS011;42623;49.978;9.966;2023-07-24T00:09:08;6.77;;;2.30;;
56746;SDS011;42623;49.978;9.966;2023-07-24T00:09:18;6.67;;;2.40;;
56746;SDS011;42623;49.978;9.966;2023-07-24T00:09:28;6.23;;;2.73;;
56746;SDS011;42623;49.978;9.966;2023-07-24T00:09:38;6.45;;;2.75;;
56746;SDS011;42623;49.978;9.966;2023-07-24T00:09:49;5.97;;;2.30;;
56746;SDS011;42623;49.978;9.966;2023-07-24T00:09:59;5.30;;;2.10;;
56746;SDS011;42623;49.978;9.966;2023-07-24T00:10:09;5.57;;;2.20;;
56746;SDS011;42623;49.978;9.966;2023-07-24T00:10:19;6.03;;;2.30;;
56746;SDS011;42623;49.978;9.966;2023-07-24T00:10:29;6.20;;;2.33;;
56746;SDS011;42623;49.978;9.966;2023-07-24T00:10:39;5.83;;;2.23;;
56746;SDS011;42623;49.978;9.966;2023-07-24T00:10:50;5.30;;;2.23;;
56746;SDS011;42623;49.978;9.966;2023-07-24T00:11:00;5.72;;;2.42;;
56746;SDS011;42623;49.978;9.966;2023-07-24T00:11:12;5.93;;;2.58;;
56746;SDS011;42623;49.978;9.966;2023-07-24T00:11:22;6.17;;;2.30;;
56746;SDS011;42623;49.978;9.966;2023-07-24T00:11:33;5.72;;;2.15;;
56746;SDS011;42623;49.978;9.966;2023-07-24T00:11:43;5.97;;;2.43;;
56746;SDS011;42623;49.978;9.966;2023-07-24T00:11:53;5.90;;;2.83;;
56746;SDS011;42623;49.978;9.966;2023-07-24T00:12:03;5.83;;;2.97;;
56746;SDS011;42623;49.978;9.966;2023-07-24T00:12:13;6.43;;;2.93;;
56746;SDS011;42623;49.978;9.966;2023-07-24T00:12:23;6.80;;;2.90;;
56746;SDS011;42623;49.978;9.966;2023-07-24T00:12:34;6.93;;;2.70;;
56746;SDS011;42623;49.978;9.966;2023-07-24T00:12:44;6.27;;;2.50;;
56746;SDS011;42623;49.978;9.966;2023-07-24T00:12:54;6.93;;;2.37;;
56746;SDS011;42623;49.978;9.966;2023-07-24T00:13:04;6.10;;;2.23;;
56746;SDS011;42623;49.978;9.966;2023-07-24T00:13:14;6.23;;;2.17;;
56746;SDS011;42623;49.978;9.966;2023-07-24T00:13:24;4.75;;;2.13;;
56746;SDS011;42623;49.978;9.966;2023-07-24T00:13:34;5.00;;;2.20;;
56746;SDS011;42623;49.978;9.966;2023-07-24T00:13:45;6.67;;;2.30;;
56746;SDS011;42623;49.978;9.966;2023-07-24T00:13:55;7.20;;;2.40;;
56746;SDS011;42623;49.978;9.966;2023-07-24T00:14:05;7.80;;;2.67;;
56746;SDS011;42623;49.978;9.966;2023-07-24T00:14:15;9.55;;;2.90;;
56746;SDS011;42623;49.978;9.966;2023-07-24T00:14:26;9.27;;;2.77;;
56746;SDS011;42623;49.978;9.966;2023-07-24T00:14:36;10.30;;;2.53;;
56746;SDS011;42623;49.978;9.966;2023-07-24T00:14:46;7.03;;;2.00;;
56746;SDS011;42623;49.978;9.966;2023-07-24T00:14:56;6.72;;;1.90;;
56746;SDS011;42623;49.978;9.966;2023-07-24T00:15:06;5.13;;;1.90;;
56746;SDS011;42623;49.978;9.966;2023-07-24T00:15:17;5.00;;;2.10;;
56746;SDS011;42623;49.978;9.966;2023-07-24T00:15:27;5.70;;;2.22;;
56746;SDS011;42623;49.978;9.966;2023-07-24T00:15:38;6.47;;;2.27;;
56746;SDS011;42623;49.978;9.966;2023-07-24T00:15:48;5.57;;;2.00;;
56746;SDS011;42623;49.978;9.966;2023-07-24T00:15:58;11.67;;;2.30;;
56746;SDS011;42623;49.978;9.966;2023-07-24T00:16:08;12.00;;;2.40;;
56746;SDS011;42623;49.978;9.966;2023-07-24T00:16:19;12.67;;;2.73;;
56746;SDS011;42623;49.978;9.966;2023-07-24T00:16:29;5.72;;;2.53;;
56746;SDS011;42623;49.978;9.966;2023-07-24T00:16:39;4.93;;;2.47;;
56746;SDS011;42623;49.978;9.966;2023-07-24T00:16:49;4.70;;;2.50;;
56746;SDS011;42623;49.978;9.966;2023-07-24T00:17:00;4.78;;;2.40;;
56746;SDS011;42623;49.978;9.966;2023-07-24T00:17:10;4.83;;;2.23;;
56746;SDS011;42623;49.978;9.966;2023-07-24T00:17:20;4.80;;;2.13;;
56746;SDS011;42623;49.978;9.966;2023-07-24T00:17:30;5.07;;;2.00;;
56746;SDS011;42623;49.978;9.966;2023-07-24T00:17:40;5.27;;;2.10;;
56746;SDS011;42623;49.978;9.966;2023-07-24T00:17:51;6.32;;;2.22;;
56746;SDS011;42623;49.978;9.966;2023-07-24T00:18:01;6.33;;;2.57;;
56746;SDS011;42623;49.978;9.966;2023-07-24T00:18:11;6.27;;;2.57;;
56746;SDS011;42623;49.978;9.966;2023-07-24T00:18:21;5.33;;;2.40;;
56746;SDS011;42623;49.978;9.966;2023-07-24T00:18:31;5.43;;;2.23;;
56746;SDS011;42623;49.978;9.966;2023-07-24T00:18:41;6.30;;;2.58;;
56746;SDS011;42623;49.978;9.966;2023-07-24T00:18:52;6.37;;;2.67;;
56746;SDS011;42623;49.978;9.966;2023-07-24T00:19:02;5.53;;;2.37;;
56746;SDS011;42623;49.978;9.966;2023-07-24T00:19:12;4.53;;;2.07;;
56746;SDS011;42623;49.978;9.966;2023-07-24T00:19:22;4.03;;;1.93;;
56746;SDS011;42623;49.978;9.966;2023-07-24T00:19:32;5.10;;;1.92;;
56746;SDS011;42623;49.978;9.966;2023-07-24T00:19:42;5.53;;;1.90;;
56746;SDS011;42623;49.978;9.966;2023-07-24T00:19:52;5.90;;;2.20;;
56746;SDS011;42623;49.978;9.966;2023-07-24T00:20:03;5.50;;;2.20;;
56746;SDS011;42623;49.978;9.966;2023-07-24T00:20:13;5.23;;;2.30;;
56746;SDS011;42623;49.978;9.966;2023-07-24T00:20:23;5.68;;;2.05;;
56746;SDS011;42623;49.978;9.966;2023-07-24T00:20:34;5.50;;;2.00;;
56746;SDS011;42623;49.978;9.966;2023-07-24T00:20:44;6.13;;;2.07;;
56746;SDS011;42623;49.978;9.966;2023-07-24T00:20:55;5.10;;;2.00;;
56746;SDS011;42623;49.978;9.966;2023-07-24T00:21:05;4.90;;;1.93;;
56746;SDS011;42623;49.978;9.966;2023-07-24T00:21:15;4.87;;;1.90;;
56746;SDS011;42623;49.978;9.966;2023-07-24T00:21:25;4.55;;;1.98;;
56746;SDS011;42623;49.978;9.966;2023-07-24T00:21:35;5.53;;;2.47;;
56746;SDS011;42623;49.978;9.966;2023-07-24T00:21:45;5.20;;;2.43;;
56746;SDS011;42623;49.978;9.966;2023-07-24T00:21:55;6.20;;;2.63;;
56746;SDS011;42623;49.978;9.966;2023-07-24T00:22:06;5.97;;;2.43;;
56746;SDS011;42623;49.978;9.966;2023-07-24T00:22:16;6.75;;;2.67;;
56746;SDS011;42623;49.978;9.966;2023-07-24T00:22:26;7.23;;;2.77;;
56746;SDS011;42623;49.978;9.966;2023-07-24T00:22:36;8.43;;;2.73;;
56746;SDS011;42623;49.978;9.966;2023-07-24T00:22:46;7.37;;;2.67;;
56746;SDS011;42623;49.978;9.966;2023-07-24T00:22:56;6.63;;;2.57;;
56746;SDS011;42623;49.978;9.966;2023-07-24T00:23:06;4.97;;;2.50;;
56746;SDS011;42623;49.978;9.966;2023-07-24T00:23:17;5.35;;;2.50;;
56746;SDS011;42623;49.978;9.966;2023-07-24T00:23:27;5.10;;;2.27;;
56746;SDS011;42623;49.978;9.966;2023-07-24T00:23:37;4.47;;;2.03;;
56746;SDS011;42623;49.978;9.966;2023-07-24T00:23:47;3.97;;;1.87;;
56746;SDS011;42623;49.978;9.966;2023-07-24T00:23:57;5.00;;;2.30;;
56746;SDS011;42623;49.978;9.966;2023-07-24T00:24:07;7.40;;;2.77;;
56746;SDS011;42623;49.978;9.966;2023-07-24T00:24:18;8.00;;;2.53;;
56746;SDS011;42623;49.978;9.966;2023-07-24T00:24:29;7.13;;;2.20;;
56746;SDS011;42623;49.978;9.966;2023-07-24T00:24:39;5.40;;;2.10;;
56746;SDS011;42623;49.978;9.966;2023-07-24T00:24:49;4.80;;;2.17;;
56746;SDS011;42623;49.978;9.966;2023-07-24T00:25:00;4.70;;;2.07;;
56746;SDS011;42623;49.978;9.966;2023-07-24T00:25:10;5.07;;;1.80;;
56746;SDS011;42623;49.978;9.966;2023-07-24T00:25:20;5.30;;;1.90;;
56746;SDS011;42623;49.978;9.966;2023-07-24T00:25:30;6.03;;;2.13;;
56746;SDS011;42623;49.978;9.966;2023-07-24T00:25:40;5.43;;;2.17;;
56746;SDS011;42623;49.978;9.966;2023-07-24T00:25:50;4.83;;;2.10;;
56746;SDS011;42623;49.978;9.966;2023-07-24T00:26:01;4.70;;;2.00;;
56746;SDS011;42623;49.978;9.966;2023-07-24T00:26:11;5.57;;;2.43;;
56746;SDS011;42623;49.978;9.966;2023-07-24T00:26:21;6.03;;;2.40;;
56746;SDS011;42623;49.978;9.966;2023-07-24T00:26:31;5.63;;;2.28;;
56746;SDS011;42623;49.978;9.966;2023-07-24T00:26:41;6.17;;;2.33;;
56746;SDS011;42623;49.978;9.966;2023-07-24T00:26:51;6.87;;;2.70;;
56746;SDS011;42623;49.978;9.966;2023-07-24T00:27:01;6.37;;;2.67;;
56746;SDS011;42623;49.978;9.966;2023-07-24T00:27:12;5.50;;;2.35;;
56746;SDS011;42623;49.978;9.966;2023-07-24T00:27:23;5.45;;;2.35;;
56746;SDS011;42623;49.978;9.966;2023-07-24T00:27:34;6.30;;;2.70;;
56746;SDS011;42623;49.978;9.966;2023-07-24T00:27:44;5.97;;;2.55;;
56746;SDS011;42623;49.978;9.966;2023-07-24T00:27:54;5.23;;;2.33;;
56746;SDS011;42623;49.978;9.966;2023-07-24T00:28:04;4.43;;;2.00;;
56746;SDS011;42623;49.978;9.966;2023-07-24T00:28:14;5.03;;;2.30;;
56746;SDS011;42623;49.978;9.966;2023-07-24T00:28:24;6.03;;;2.90;;
56746;SDS011;42623;49.978;9.966;2023-07-24T00:28:34;7.13;;;3.17;;
56746;SDS011;42623;49.978;9.966;2023-07-24T00:28:45;6.63;;;2.90;;
56746;SDS011;42623;49.978;9.966;2023-07-24T00:28:55;5.60;;;2.20;;
56746;SDS011;42623;49.978;9.966;2023-07-24T00:29:05;4.63;;;2.20;;
56746;SDS011;42623;49.978;9.966;2023-07-24T00:29:15;5.20;;;2.43;;
56746;SDS011;42623;49.978;9.966;2023-07-24T00:29:25;5.50;;;2.63;;
56746;SDS011;42623;49.978;9.966;2023-07-24T00:29:35;5.60;;;2.60;;
56746;SDS011;42623;49.978;9.966;2023-07-24T00:29:45;5.50;;;2.30;;
56746;SDS011;42623;49.978;9.966;2023-07-24T00:29:56;5.60;;;2.13;;
56746;SDS011;42623;49.978;9.966;2023-07-24T00:30:06;5.83;;;2.10;;
56746;SDS011;42623;49.978;9.966;2023-07-24T00:30:17;5.88;;;2.38;;
56746;SDS011;42623;49.978;9.966;2023-07-24T00:30:27;5.80;;;2.73;;
56746;SDS011;42623;49.978;9.966;2023-07-24T00:30:37;5.67;;;2.73;;
56746;SDS011;42623;49.978;9.966;2023-07-24T00:30:47;5.30;;;2.50;;
56746;SDS011;42623;49.978;9.966;2023-07-24T00:30:57;5.07;;;2.17;;
56746;SDS011;42623;49.978;9.966;2023-07-24T00:31:07;4.73;;;2.20;;
56746;SDS011;42623;49.978;9.966;2023-07-24T00:31:17;5.20;;;2.40;;
56746;SDS011;42623;49.978;9.966;2023-07-24T00:31:28;6.93;;;2.87;;
56746;SDS011;42623;49.978;9.966;2023-07-24T00:31:38;7.43;;;2.90;;
56746;SDS011;42623;49.978;9.966;2023-07-24T00:31:48;7.53;;;3.00;;
56746;SDS011;42623;49.978;9.966;2023-07-24T00:31:58;6.75;;;2.63;;
56746;SDS011;42623;49.978;9.966;2023-07-24T00:32:08;6.93;;;2.80;;
56746;SDS011;42623;49.978;9.966;2023-07-24T00:32:18;6.63;;;2.50;;
56746;SDS011;42623;49.978;9.966;2023-07-24T00:32:29;6.07;;;2.60;;
56746;SDS011;42623;49.978;9.966;2023-07-24T00:32:39;6.20;;;2.63;;
56746;SDS011;42623;49.978;9.966;2023-07-24T00:32:49;7.18;;;2.80;;
56746;SDS011;42623;49.978;9.966;2023-07-24T00:32:59;6.90;;;2.50;;
56746;SDS011;42623;49.978;9.966;2023-07-24T00:33:09;7.97;;;2.43;;
56746;SDS011;42623;49.978;9.966;2023-07-24T00:33:19;7.60;;;2.53;;
56746;SDS011;42623;49.978;9.966;2023-07-24T00:33:29;8.57;;;2.83;;
56746;SDS011;42623;49.978;9.966;2023-07-24T00:33:39;8.00;;;2.90;;
56746;SDS011;42623;49.978;9.966;2023-07-24T00:33:50;7.60;;;2.80;;
56746;SDS011;42623;49.978;9.966;2023-07-24T00:34:00;6.40;;;2.90;;
56746;SDS011;42623;49.978;9.966;2023-07-24T00:34:10;6.63;;;2.93;;
56746;SDS011;42623;49.978;9.966;2023-07-24T00:34:20;7.30;;;2.97;;
56746;SDS011;42623;49.978;9.966;2023-07-24T00:34:30;6.43;;;2.73;;
56746;SDS011;42623;49.978;9.966;2023-07-24T00:34:40;6.30;;;2.70;;
56746;SDS011;42623;49.978;9.966;2023-07-24T00:34:51;5.37;;;2.63;;
56746;SDS011;42623;49.978;9.966;2023-07-24T00:35:01;6.17;;;2.50;;
56746;SDS011;42623;49.978;9.966;2023-07-24T00:35:11;6.27;;;2.63;;
56746;SDS011;42623;49.978;9.966;2023-07-24T00:35:21;6.67;;;3.03;;
56746;SDS011;42623;49.978;9.966;2023-07-24T00:35:31;6.13;;;3.10;;
56746;SDS011;42623;49.978;9.966;2023-07-24T00:35:41;6.35;;;2.80;;
56746;SDS011;42623;49.978;9.966;2023-07-24T00:35:55;7.20;;;2.80;;
56746;SDS011;42623;49.978;9.966;2023-07-24T00:36:05;9.05;;;2.95;;
56746;SDS011;42623;49.978;9.966;2023-07-24T00:36:15;8.93;;;2.70;;
56746;SDS011;42623;49.978;9.966;2023-07-24T00:36:25;8.10;;;2.47;;
56746;SDS011;42623;49.978;9.966;2023-07-24T00:36:36;5.60;;;2.53;;
56746;SDS011;42623;49.978;9.966;2023-07-24T00:36:46;7.65;;;3.03;;
56746;SDS011;42623;49.978;9.966;2023-07-24T00:36:56;8.20;;;2.87;;
56746;SDS011;42623;49.978;9.966;2023-07-24T00:37:07;8.77;;;2.40;;
56746;SDS011;42623;49.978;9.966;2023-07-24T00:37:17;6.67;;;2.13;;
56746;SDS011;42623;49.978;9.966;2023-07-24T00:37:27;5.73;;;2.00;;
56746;SDS011;42623;49.978;9.966;2023-07-24T00:37:37;5.82;;;2.28;;
56746;SDS011;42623;49.978;9.966;2023-07-24T00:37:47;6.30;;;2.33;;
56746;SDS011;42623;49.978;9.966;2023-07-24T00:37:57;6.87;;;2.60;;
56746;SDS011;42623;49.978;9.966;2023-07-24T00:38:07;7.87;;;2.67;;
56746;SDS011;42623;49.978;9.966;2023-07-24T00:38:18;8.23;;;2.83;;
56746;SDS011;42623;49.978;9.966;2023-07-24T00:38:28;7.75;;;2.70;;
56746;SDS011;42623;49.978;9.966;2023-07-24T00:38:39;6.03;;;2.67;;
56746;SDS011;42623;49.978;9.966;2023-07-24T00:38:49;5.93;;;2.65;;
56746;SDS011;42623;49.978;9.966;2023-07-24T00:38:59;6.63;;;2.93;;
56746;SDS011;42623;49.978;9.966;2023-07-24T00:39:09;6.77;;;2.90;;
56746;SDS011;42623;49.978;9.966;2023-07-24T00:39:19;6.70;;;2.77;;
56746;SDS011;42623;49.978;9.966;2023-07-24T00:39:29;6.43;;;2.67;;
56746;SDS011;42623;49.978;9.966;2023-07-24T00:39:40;6.53;;;2.57;;
56746;SDS011;42623;49.978;9.966;2023-07-24T00:39:50;7.18;;;2.40;;
56746;SDS011;42623;49.978;9.966;2023-07-24T00:40:00;7.10;;;2.23;;
56746;SDS011;42623;49.978;9.966;2023-07-24T00:40:10;6.40;;;2.30;;
56746;SDS011;42623;49.978;9.966;2023-07-24T00:40:20;8.70;;;2.73;;
56746;SDS011;42623;49.978;9.966;2023-07-24T00:40:31;10.15;;;2.75;;
56746;SDS011;42623;49.978;9.966;2023-07-24T00:40:41;10.33;;;2.90;;
56746;SDS011;42623;49.978;9.966;2023-07-24T00:40:51;6.00;;;2.97;;
56746;SDS011;42623;49.978;9.966;2023-07-24T00:41:01;6.87;;;3.30;;
56746;SDS011;42623;49.978;9.966;2023-07-24T00:41:11;6.60;;;2.90;;
56746;SDS011;42623;49.978;9.966;2023-07-24T00:41:21;7.78;;;2.67;;
56746;SDS011;42623;49.978;9.966;2023-07-24T00:41:31;6.87;;;2.37;;
56746;SDS011;42623;49.978;9.966;2023-07-24T00:41:42;7.33;;;2.57;;
56746;SDS011;42623;49.978;9.966;2023-07-24T00:41:52;5.37;;;2.47;;
56746;SDS011;42623;49.978;9.966;2023-07-24T00:42:02;5.57;;;2.67;;
56746;SDS011;42623;49.978;9.966;2023-07-24T00:42:12;5.65;;;2.60;;
56746;SDS011;42623;49.978;9.966;2023-07-24T00:42:23;6.03;;;2.77;;
56746;SDS011;42623;49.978;9.966;2023-07-24T00:42:33;7.27;;;3.27;;
56746;SDS011;42623;49.978;9.966;2023-07-24T00:42:46;6.80;;;3.13;;
56746;SDS011;42623;49.978;9.966;2023-07-24T00:42:56;6.82;;;2.60;;
56746;SDS011;42623;49.978;9.966;2023-07-24T00:43:06;5.87;;;2.37;;
56746;SDS011;42623;49.978;9.966;2023-07-24T00:43:16;6.27;;;2.67;;
56746;SDS011;42623;49.978;9.966;2023-07-24T00:43:27;5.77;;;2.70;;
56746;SDS011;42623;49.978;9.966;2023-07-24T00:43:37;5.37;;;2.50;;
56746;SDS011;42623;49.978;9.966;2023-07-24T00:43:47;5.20;;;2.25;;
56746;SDS011;42623;49.978;9.966;2023-07-24T00:43:57;6.00;;;2.57;;
56746;SDS011;42623;49.978;9.966;2023-07-24T00:44:07;6.50;;;2.67;;
56746;SDS011;42623;49.978;9.966;2023-07-24T00:44:18;6.73;;;2.77;;
56746;SDS011;42623;49.978;9.966;2023-07-24T00:44:28;6.18;;;2.60;;
56746;SDS011;42623;49.978;9.966;2023-07-24T00:44:38;6.17;;;2.43;;
56746;SDS011;42623;49.978;9.966;2023-07-24T00:44:48;6.37;;;2.27;;
56746;SDS011;42623;49.978;9.966;2023-07-24T00:44:59;6.87;;;2.30;;
56746;SDS011;42623;49.978;9.966;2023-07-24T00:45:09;6.70;;;2.50;;
56746;SDS011;42623;49.978;9.966;2023-07-24T00:45:19;6.43;;;2.47;;
56746;SDS011;42623;49.978;9.966;2023-07-24T00:45:29;5.70;;;2.23;;
56746;SDS011;42623;49.978;9.966;2023-07-24T00:45:40;5.40;;;1.98;;
56746;SDS011;42623;49.978;9.966;2023-07-24T00:45:50;5.93;;;2.17;;
56746;SDS011;42623;49.978;9.966;2023-07-24T00:46:00;5.83;;;2.27;;
56746;SDS011;42623;49.978;9.966;2023-07-24T00:46:11;5.80;;;2.20;;
56746;SDS011;42623;49.978;9.966;2023-07-24T00:46:21;5.30;;;2.00;;
56746;SDS011;42623;49.978;9.966;2023-07-24T00:46:32;6.83;;;2.07;;
56746;SDS011;42623;49.978;9.966;2023-07-24T00:46:43;6.93;;;2.30;;
56746;SDS011;42623;49.978;9.966;2023-07-24T00:46:53;8.20;;;2.37;;
56746;SDS011;42623;49.978;9.966;2023-07-24T00:47:03;6.60;;;2.27;;
56746;SDS011;42623;49.978;9.966;2023-07-24T00:47:14;6.82;;;2.25;;
56746;SDS011;42623;49.978;9.966;2023-07-24T00:47:25;5.03;;;2.27;;
56746;SDS011;42623;49.978;9.966;2023-07-24T00:47:36;5.72;;;2.40;;
56746;SDS011;42623;49.978;9.966;2023-07-24T00:47:46;6.23;;;2.33;;
56746;SDS011;42623;49.978;9.966;2023-07-24T00:47:56;7.23;;;2.63;;
56746;SDS011;42623;49.978;9.966;2023-07-24T00:48:06;6.60;;;2.60;;
56746;SDS011;42623;49.978;9.966;2023-07-24T00:48:16;5.67;;;2.60;;
56746;SDS011;42623;49.978;9.966;2023-07-24T00:48:27;5.80;;;2.37;;
56746;SDS011;42623;49.978;9.966;2023-07-24T00:48:37;6.83;;;2.80;;
56746;SDS011;42623;49.978;9.966;2023-07-24T00:48:47;7.32;;;2.90;;
56746;SDS011;42623;49.978;9.966;2023-07-24T00:48:58;5.87;;;2.63;;
56746;SDS011;42623;49.978;9.966;2023-07-24T00:49:09;4.65;;;1.98;;
56746;SDS011;42623;49.978;9.966;2023-07-24T00:49:19;4.90;;;1.85;;
56746;SDS011;42623;49.978;9.966;2023-07-24T00:49:29;6.37;;;1.87;;
56746;SDS011;42623;49.978;9.966;2023-07-24T00:49:39;6.93;;;2.10;;
56746;SDS011;42623;49.978;9.966;2023-07-24T00:49:50;5.57;;;2.03;;
56746;SDS011;42623;49.978;9.966;2023-07-24T00:50:00;4.90;;;2.10;;
56746;SDS011;42623;49.978;9.966;2023-07-24T00:50:10;4.40;;;1.73;;
56746;SDS011;42623;49.978;9.966;2023-07-24T00:50:21;4.57;;;1.83;;
56746;SDS011;42623;49.978;9.966;2023-07-24T00:50:31;4.50;;;1.80;;
56746;SDS011;42623;49.978;9.966;2023-07-24T00:50:42;5.23;;;2.20;;
56746;SDS011;42623;49.978;9.966;2023-07-24T00:50:52;4.82;;;2.13;;
56746;SDS011;42623;49.978;9.966;2023-07-24T00:51:03;5.25;;;2.33;;
56746;SDS011;42623;49.978;9.966;2023-07-24T00:51:13;5.00;;;2.17;;
56746;SDS011;42623;49.978;9.966;2023-07-24T00:51:23;5.60;;;2.40;;
56746;SDS011;42623;49.978;9.966;2023-07-24T00:51:33;5.60;;;2.47;;
56746;SDS011;42623;49.978;9.966;2023-07-24T00:51:44;6.33;;;2.53;;
56746;SDS011;42623;49.978;9.966;2023-07-24T00:51:55;6.53;;;2.53;;
56746;SDS011;42623;49.978;9.966;2023-07-24T00:52:05;8.00;;;2.70;;
56746;SDS011;42623;49.978;9.966;2023-07-24T00:52:16;7.88;;;2.80;;
56746;SDS011;42623;49.978;9.966;2023-07-24T00:52:26;8.07;;;2.77;;
56746;SDS011;42623;49.978;9.966;2023-07-24T00:52:36;6.83;;;2.47;;
56746;SDS011;42623;49.978;9.966;2023-07-24T00:52:47;7.20;;;2.38;;
56746;SDS011;42623;49.978;9.966;2023-07-24T00:52:57;6.90;;;2.37;;
56746;SDS011;42623;49.978;9.966;2023-07-24T00:53:07;6.22;;;2.53;;
56746;SDS011;42623;49.978;9.966;2023-07-24T00:53:18;6.73;;;2.90;;
56746;SDS011;42623;49.978;9.966;2023-07-24T00:53:29;6.40;;;2.88;;
56746;SDS011;42623;49.978;9.966;2023-07-24T00:53:39;5.78;;;2.70;;
56746;SDS011;42623;49.978;9.966;2023-07-24T00:53:49;5.00;;;2.43;;
56746;SDS011;42623;49.978;9.966;2023-07-24T00:54:00;5.07;;;2.47;;
56746;SDS011;42623;49.978;9.966;2023-07-24T00:54:10;5.40;;;2.42;;
56746;SDS011;42623;49.978;9.966;2023-07-24T00:54:21;5.87;;;2.53;;
56746;SDS011;42623;49.978;9.966;2023-07-24T00:54:32;5.60;;;2.38;;
56746;SDS011;42623;49.978;9.966;2023-07-24T00:54:42;5.28;;;2.20;;
56746;SDS011;42623;49.978;9.966;2023-07-24T00:54:53;4.93;;;2.13;;
56746;SDS011;42623;49.978;9.966;2023-07-24T00:55:03;5.50;;;2.50;;
56746;SDS011;42623;49.978;9.966;2023-07-24T00:55:14;5.97;;;2.70;;
56746;SDS011;42623;49.978;9.966;2023-07-24T00:55:26;6.50;;;2.65;;
56746;SDS011;42623;49.978;9.966;2023-07-24T00:55:36;6.00;;;2.50;;
56746;SDS011;42623;49.978;9.966;2023-07-24T00:55:46;5.83;;;2.70;;
56746;SDS011;42623;49.978;9.966;2023-07-24T00:55:57;5.80;;;2.67;;
56746;SDS011;42623;49.978;9.966;2023-07-24T00:56:07;5.90;;;2.50;;
56746;SDS011;42623;49.978;9.966;2023-07-24T00:56:17;5.27;;;2.03;;
56746;SDS011;42623;49.978;9.966;2023-07-24T00:56:27;4.53;;;1.90;;
56746;SDS011;42623;49.978;9.966;2023-07-24T00:56:38;5.03;;;1.95;;
56746;SDS011;42623;49.978;9.966;2023-07-24T00:56:48;5.37;;;2.10;;
56746;SDS011;42623;49.978;9.966;2023-07-24T00:56:58;6.17;;;2.40;;
56746;SDS011;42623;49.978;9.966;2023-07-24T00:57:08;6.17;;;2.50;;
56746;SDS011;42623;49.978;9.966;2023-07-24T00:57:18;6.00;;;2.47;;
56746;SDS011;42623;49.978;9.966;2023-07-24T00:57:29;5.40;;;2.53;;
56746;SDS011;42623;49.978;9.966;2023-07-24T00:57:40;5.30;;;2.58;;
56746;SDS011;42623;49.978;9.966;2023-07-24T00:57:50;5.47;;;2.37;;
56746;SDS011;42623;49.978;9.966;2023-07-24T00:58:01;5.55;;;2.13;;
56746;SDS011;42623;49.978;9.966;2023-07-24T00:58:12;6.78;;;1.98;;
56746;SDS011;42623;49.978;9.966;2023-07-24T00:58:22;7.40;;;2.27;;
56746;SDS011;42623;49.978;9.966;2023-07-24T00:58:33;7.20;;;2.28;;
56746;SDS011;42623;49.978;9.966;2023-07-24T00:58:43;5.20;;;2.10;;
56746;SDS011;42623;49.978;9.966;2023-07-24T00:58:54;4.97;;;2.00;;
56746;SDS011;42623;49.978;9.966;2023-07-24T00:59:05;5.40;;;2.33;;
56746;SDS011;42623;49.978;9.966;2023-07-24T00:59:16;5.63;;;2.53;;
56746;SDS011;42623;49.978;9.966;2023-07-24T00:59:26;4.97;;;2.43;;
56746;SDS011;42623;49.978;9.966;2023-07-24T00:59:36;4.40;;;2.13;;
56746;SDS011;42623;49.978;9.966;2023-07-24T00:59:46;5.17;;;2.20;;
56746;SDS011;42623;49.978;9.966;2023-07-24T00:59:56;5.47;;;2.23;;
56746;SDS011;42623;49.978;9.966;2023-07-24T01:00:07;6.00;;;2.50;;
56746;SDS011;42623;49.978;9.966;2023-07-24T01:00:17;6.23;;;2.43;;
56746;SDS011;42623;49.978;9.966;2023-07-24T01:00:27;6.53;;;2.50;;
56746;SDS011;42623;49.978;9.966;2023-07-24T01:00:38;7.10;;;2.57;;
56746;SDS011;42623;49.978;9.966;2023-07-24T01:00:48;6.65;;;2.75;;
56746;SDS011;42623;49.978;9.966;2023-07-24T01:00:59;6.60;;;2.67;;
56746;SDS011;42623;49.978;9.966;2023-07-24T01:01:10;6.27;;;2.73;;
56746;SDS011;42623;49.978;9.966;2023-07-24T01:01:20;9.32;;;2.85;;
56746;SDS011;42623;49.978;9.966;2023-07-24T01:01:30;8.60;;;2.73;;
56746;SDS011;42623;49.978;9.966;2023-07-24T01:01:40;8.47;;;2.67;;
56746;SDS011;42623;49.978;9.966;2023-07-24T01:01:51;5.60;;;2.40;;
56746;SDS011;42623;49.978;9.966;2023-07-24T01:02:01;5.70;;;2.20;;